Terminal Aerodrome Forecast
Issued by NWS Charleston, SC

Home | Current Version | Previous Version | Text Only | Print | Product List | Glossary On
Versions: 1 2 3 4 5 6 7 8 9 10 11 12 13 14 15 16 17 18 19 20
000
FTUS42 KCHS 241100
TAFSAV
TAF
KSAV 241120Z 2412/2512 03004KT P6SM SKC
     FM241500 09010KT P6SM FEW060
     FM241900 12012G18KT P6SM FEW060
     FM250200 16008KT P6SM SCT010 BKN040=

USA.gov is the U.S. government's official web portal to all federal, state and local government web resources and services.